Time;durP1;ratioP1;P1;durP2;ratioP2;P2;SDS_P1;SDS_P2;PMS_P1;PMS_P2;Temp;Humidity;BMP_temperature;BMP_pressure;BME280_temperature;BME280_humidity;BME280_pressure;Samples;Min_cycle;Max_cycle;Signal;HPM_P1;HPM_P2
2022/12/26 00:01:26;;;;;;;0.30;0.30;;;;;;;5.02;78.11;96302.47;5114981;28;20463;-58
2022/12/26 00:03:57;;;;;;;0.80;0.80;;;;;;;4.92;76.69;96264.53;5114456;28;20884;-58
2022/12/26 00:06:27;;;;;;;0.87;0.87;;;;;;;5.14;76.91;96319.16;5114555;28;20431;-58
2022/12/26 00:08:56;;;;;;;0.40;0.37;;;;;;;5.10;76.31;96317.97;5114639;28;20416;-58
2022/12/26 00:11:26;;;;;;;0.50;0.50;;;;;;;4.98;77.44;96324.88;5113935;28;20518;-59
2022/12/26 00:13:55;;;;;;;0.40;0.30;;;;;;;4.46;77.57;96256.84;5114171;28;20464;-58
2022/12/26 00:16:25;;;;;;;1.67;0.43;;;;;;;4.91;77.84;96331.19;5114600;28;20447;-58
2022/12/26 00:18:54;;;;;;;0.73;0.70;;;;;;;4.88;77.25;96332.41;5114590;28;20487;-59
2022/12/26 00:21:26;;;;;;;0.50;0.30;;;;;;;4.90;77.30;96322.53;5114247;28;20516;-58
2022/12/26 00:23:56;;;;;;;0.30;0.30;;;;;;;4.64;77.41;96270.09;5113993;28;20515;-59
2022/12/26 00:26:29;;;;;;;0.50;0.50;;;;;;;4.96;77.30;96336.63;5114470;28;20825;-58
2022/12/26 00:28:58;;;;;;;2.77;2.57;;;;;;;4.93;77.55;96329.97;5114142;28;20440;-58
2022/12/26 00:31:29;;;;;;;0.43;0.40;;;;;;;4.63;76.83;96267.69;5113992;28;20463;-59
2022/12/26 00:33:57;;;;;;;0.67;0.67;;;;;;;4.96;77.16;96326.94;5114092;28;20431;-59
2022/12/26 00:36:29;;;;;;;0.60;0.60;;;;;;;4.98;76.94;96327.53;5114278;28;20499;-58
2022/12/26 00:38:59;;;;;;;2.10;2.00;;;;;;;4.57;77.73;96279.03;5113635;28;20434;-59
2022/12/26 00:41:28;;;;;;;1.07;1.07;;;;;;;4.90;77.87;96330.41;5113658;28;20960;-59
2022/12/26 00:43:56;;;;;;;0.73;0.73;;;;;;;4.68;78.90;96318.56;5114213;28;20463;-59
2022/12/26 00:46:26;;;;;;;0.40;0.37;;;;;;;4.27;82.42;96347.78;5113955;28;20428;-58
2022/12/26 00:48:55;;;;;;;0.63;0.60;;;;;;;4.43;83.19;96344.69;5113466;28;20990;-58
2022/12/26 00:51:23;;;;;;;0.80;0.80;;;;;;;3.82;84.23;96280.41;5113888;28;20464;-58
2022/12/26 00:53:53;;;;;;;0.70;0.70;;;;;;;4.07;87.25;96339.13;5113556;28;20496;-58
2022/12/26 00:56:21;;;;;;;1.53;1.43;;;;;;;4.34;85.31;96335.44;5113602;28;20459;-58
2022/12/26 00:58:49;;;;;;;0.40;0.40;;;;;;;4.21;83.31;96285.59;5113683;28;20428;-58
2022/12/26 01:01:20;;;;;;;0.50;0.50;;;;;;;4.42;83.10;96340.47;5113614;28;20500;-58
2022/12/26 01:03:49;;;;;;;1.70;0.70;;;;;;;4.42;84.30;96339.66;5113449;28;20419;-58
2022/12/26 01:06:18;;;;;;;0.70;0.70;;;;;;;4.63;82.60;96347.25;5113403;28;20431;-59
2022/12/26 01:08:46;;;;;;;0.90;0.60;;;;;;;4.46;82.06;96322.47;5113358;28;21050;-58
2022/12/26 01:11:38;;;;;;;5.73;2.10;;;;;;;4.54;81.20;96342.44;5113047;28;20436;-58
2022/12/26 01:14:06;;;;;;;0.40;0.40;;;;;;;4.63;81.10;96356.97;5113346;28;20497;-58
2022/12/26 01:16:35;;;;;;;0.40;0.40;;;;;;;4.53;81.02;96354.75;5113502;28;20431;-58
2022/12/26 01:19:03;;;;;;;2.40;1.60;;;;;;;3.97;81.67;96309.06;5113161;28;20424;-58
2022/12/26 01:21:32;;;;;;;0.60;0.30;;;;;;;4.43;81.44;96343.88;5113006;28;20834;-58
2022/12/26 01:24:01;;;;;;;0.40;0.30;;;;;;;4.46;81.32;96353.97;5113051;28;20428;-58
2022/12/26 01:26:31;;;;;;;1.63;1.53;;;;;;;4.45;80.90;96357.63;5112889;28;20424;-59
2022/12/26 01:28:59;;;;;;;2.17;2.07;;;;;;;4.36;81.58;96362.28;5112882;28;20424;-58
2022/12/26 01:31:28;;;;;;;0.50;0.40;;;;;;;4.37;81.28;96348.16;5112781;28;20431;-58
2022/12/26 01:33:56;;;;;;;0.50;0.40;;;;;;;4.38;80.88;96351.56;5112844;28;20744;-58
2022/12/26 01:36:25;;;;;;;0.50;0.50;;;;;;;4.32;81.95;96344.53;5113055;28;20440;-58
2022/12/26 01:38:53;;;;;;;0.70;0.50;;;;;;;4.28;81.59;96341.50;5112688;28;20464;-58
2022/12/26 01:41:21;;;;;;;0.50;0.50;;;;;;;4.24;81.81;96350.78;5112673;28;20551;-58
2022/12/26 01:43:54;;;;;;;0.70;0.70;;;;;;;4.27;82.11;96360.88;5112473;28;20428;-58
2022/12/26 01:46:28;;;;;;;2.20;0.60;;;;;;;4.01;82.71;96341.72;5112676;28;20477;-58
2022/12/26 01:48:58;;;;;;;2.00;1.30;;;;;;;4.31;82.51;96363.91;5112207;28;20555;-58
2022/12/26 01:51:30;;;;;;;0.87;0.87;;;;;;;4.21;82.84;96363.50;5112523;28;20430;-58
2022/12/26 01:54:01;;;;;;;0.50;0.40;;;;;;;4.20;82.85;96364.53;5112371;28;20999;-58
2022/12/26 01:56:50;;;;;;;0.40;0.40;;;;;;;4.19;82.81;96374.22;5111579;28;20444;-59
2022/12/26 01:59:25;;;;;;;0.30;0.30;;;;;;;4.34;81.77;96379.25;5112466;28;20510;-58
2022/12/26 02:01:55;;;;;;;2.17;2.07;;;;;;;4.32;81.44;96384.69;5111677;28;20471;-58
2022/12/26 02:07:14;;;;;;;0.40;0.30;;;;;;;4.16;82.28;96384.28;5112202;28;20421;-58
2022/12/26 02:09:43;;;;;;;0.77;0.43;;;;;;;4.13;82.91;96377.63;5111647;28;20511;-58
2022/12/26 02:12:17;;;;;;;0.60;0.60;;;;;;;4.07;82.89;96369.78;5112178;28;20458;-58
2022/12/26 02:15:10;;;;;;;0.50;0.50;;;;;;;4.16;82.24;96379.88;5112016;28;20424;-58
2022/12/26 02:17:39;;;;;;;0.50;0.47;;;;;;;4.25;82.00;96377.84;5111350;28;20794;-58
2022/12/26 02:20:17;;;;;;;22.07;1.17;;;;;;;4.26;81.89;96382.88;5111985;28;20428;-58
2022/12/26 02:23:36;;;;;;;0.30;0.20;;;;;;;4.11;82.54;96379.66;5112205;28;20540;-58
2022/12/26 02:26:41;;;;;;;1.07;0.97;;;;;;;4.00;82.25;96369.78;5064208;28;20531;-58
2022/12/26 02:30:09;;;;;;;1.10;1.10;;;;;;;4.13;81.91;96385.50;5112149;28;20420;-58
2022/12/26 02:33:16;;;;;;;0.60;0.60;;;;;;;3.97;82.11;96406.91;5068765;28;20924;-58
2022/12/26 02:36:00;;;;;;;0.57;0.57;;;;;;;3.38;88.67;96351.78;5068890;28;20976;-58
2022/12/26 02:38:37;;;;;;;0.30;0.20;;;;;;;3.79;88.07;96390.97;5104455;28;20438;-57
2022/12/26 02:41:19;;;;;;;0.30;0.20;;;;;;;3.78;87.01;96400.63;5111602;28;20421;-57
2022/12/26 02:47:01;;;;;;;0.40;0.30;;;;;;;3.82;85.67;96390.53;5112004;28;20416;-59
2022/12/26 02:47:02;;;;;;;0.43;0.43;;;;;;;3.43;88.08;96380.81;5111780;28;20924;-59
2022/12/26 03:17:18;;;;;;;0.30;0.20;;;;;;;3.98;83.95;96391.97;5115896;28;20428;-57
2022/12/26 03:18:19;;;;;;;0.43;0.43;;;;;;;3.80;86.01;96414.34;5115623;28;20462;-57
2022/12/26 03:21:09;;;;;;;0.70;0.50;;;;;;;3.78;88.20;96420.81;5115511;28;20428;-57
2022/12/26 03:23:42;;;;;;;2.17;2.03;;;;;;;3.35;86.76;96336.47;5115869;28;20459;-57
2022/12/26 03:31:46;;;;;;;1.20;1.20;;;;;;;3.58;90.08;96401.63;5115202;28;20467;-58
2022/12/26 03:34:16;;;;;;;0.63;0.63;;;;;;;3.64;88.63;96417.34;5115298;28;20423;-58
2022/12/26 03:36:57;;;;;;;0.50;0.50;;;;;;;3.36;88.15;96361.66;5115285;28;20531;-58
2022/12/26 04:19:50;;;;;;;0.30;0.20;;;;;;;3.29;87.35;96410.59;5114866;28;20419;-57
2022/12/26 04:45:11;;;;;;;0.50;0.47;;;;;;;3.51;86.00;96461.91;5114090;28;20512;-57
2022/12/26 04:50:10;;;;;;;1.50;0.70;;;;;;;3.47;85.82;96465.09;5113771;28;20530;-57
2022/12/26 04:50:29;;;;;;;0.40;0.40;;;;;;;3.44;85.67;96468.91;5114035;28;20502;-57
2022/12/26 04:53:00;;;;;;;0.30;0.30;;;;;;;3.21;85.29;96444.84;5113845;28;20912;-57
2022/12/26 04:55:30;;;;;;;0.40;0.30;;;;;;;3.42;85.43;96468.31;5113883;28;20428;-57
2022/12/26 04:57:59;;;;;;;1.17;0.90;;;;;;;3.36;86.19;96465.66;5113315;28;20430;-57
2022/12/26 05:00:28;;;;;;;0.60;0.60;;;;;;;3.31;85.82;96468.88;5113313;28;20531;-57
2022/12/26 05:11:24;;;;;;;1.30;1.20;;;;;;;3.01;88.91;96489.28;5113438;28;20528;-57
2022/12/26 05:13:53;;;;;;;17.60;1.03;;;;;;;2.91;90.97;96493.25;5113922;28;20968;-58
2022/12/26 05:30:24;;;;;;;2.93;2.00;;;;;;;2.87;96.89;96494.63;5112728;28;20956;-58
2022/12/26 05:35:40;;;;;;;1.40;1.13;;;;;;;2.42;100.00;96491.53;5112386;28;20505;-57
2022/12/26 05:38:10;;;;;;;0.90;0.90;;;;;;;2.60;99.36;96474.53;5112928;28;20424;-57
2022/12/26 05:40:38;;;;;;;2.60;0.73;;;;;;;3.05;96.05;96487.09;5113186;28;20510;-56
2022/12/26 05:43:07;;;;;;;3.70;1.97;;;;;;;3.24;91.35;96435.81;5113221;28;20563;-57
2022/12/26 05:45:35;;;;;;;1.27;1.17;;;;;;;3.84;88.12;96488.19;5113233;28;20506;-57
2022/12/26 05:48:03;;;;;;;4.20;1.90;;;;;;;3.96;86.16;96494.47;5112899;28;20420;-57
2022/12/26 05:50:32;;;;;;;0.47;0.47;;;;;;;3.89;84.72;96492.84;5112759;28;20464;-57
2022/12/26 05:53:02;;;;;;;2.00;1.90;;;;;;;3.55;86.65;96494.56;5112626;28;20434;-57
2022/12/26 05:55:31;;;;;;;0.40;0.40;;;;;;;3.88;88.27;96499.91;5112661;28;20431;-57
2022/12/26 05:58:00;;;;;;;0.90;0.90;;;;;;;3.77;85.89;96501.28;5112541;28;20427;-57
2022/12/26 06:00:28;;;;;;;0.70;0.40;;;;;;;3.85;84.13;96482.75;5112569;28;20435;-57
2022/12/26 06:02:59;;;;;;;1.07;1.07;;;;;;;3.98;85.28;96495.06;5112614;28;20524;-57
2022/12/26 06:05:27;;;;;;;0.67;0.67;;;;;;;3.80;84.44;96497.44;5112714;28;20432;-57
2022/12/26 06:07:56;;;;;;;1.03;0.73;;;;;;;3.59;85.45;96495.00;5112831;28;20424;-57
2022/12/26 06:10:28;;;;;;;3.43;1.30;;;;;;;3.50;84.13;96449.78;5112425;28;20424;-56
2022/12/26 06:12:56;;;;;;;1.33;1.23;;;;;;;3.17;84.72;96444.44;5112622;28;20508;-56
2022/12/26 06:15:25;;;;;;;2.10;1.97;;;;;;;3.17;86.50;96506.47;5112081;28;20438;-56
2022/12/26 06:17:54;;;;;;;2.30;0.87;;;;;;;3.18;88.88;96508.94;5112317;28;20943;-56
2022/12/26 06:20:23;;;;;;;0.90;0.73;;;;;;;3.29;88.06;96504.13;5111875;28;20454;-57
2022/12/26 06:22:51;;;;;;;2.73;2.63;;;;;;;3.63;86.69;96512.75;5111482;28;20456;-57
2022/12/26 06:25:22;;;;;;;0.50;0.50;;;;;;;3.90;86.30;96524.09;5112036;28;20428;-57
2022/12/26 06:27:51;;;;;;;1.43;1.43;;;;;;;3.93;85.24;96517.66;5111084;28;20470;-57
2022/12/26 06:30:20;;;;;;;2.50;2.30;;;;;;;4.12;84.40;96516.91;5112106;28;20435;-57
2022/12/26 06:32:50;;;;;;;3.60;3.27;;;;;;;4.09;84.42;96530.41;5112179;28;20450;-58
2022/12/26 06:35:19;;;;;;;1.60;1.50;;;;;;;4.04;84.84;96519.72;5112019;28;20434;-56
2022/12/26 06:37:47;;;;;;;1.40;1.30;;;;;;;3.87;86.07;96477.31;5111847;28;21000;-57
2022/12/26 06:40:16;;;;;;;2.93;2.73;;;;;;;4.33;83.41;96493.09;5110395;28;20446;-57
2022/12/26 06:42:44;;;;;;;5.73;4.80;;;;;;;4.64;83.34;96526.63;5110528;28;20489;-56
2022/12/26 06:45:14;;;;;;;3.87;2.57;;;;;;;5.30;81.02;96532.59;5111008;28;20538;-56
2022/12/26 06:47:42;;;;;;;6.20;4.57;;;;;;;4.93;80.12;96532.25;5110539;28;20474;-57
2022/12/26 06:50:10;;;;;;;5.43;3.77;;;;;;;5.02;80.25;96525.78;5110768;28;20471;-56
2022/12/26 06:52:39;;;;;;;4.03;3.77;;;;;;;5.58;78.70;96526.03;5111216;28;20435;-56
2022/12/26 06:55:08;;;;;;;6.07;5.80;;;;;;;5.80;76.85;96534.44;5111165;28;20534;-55
2022/12/26 06:57:37;;;;;;;3.20;3.07;;;;;;;5.93;75.51;96526.50;5111597;28;20833;-55
2022/12/26 07:00:06;;;;;;;3.30;3.03;;;;;;;6.50;73.93;96528.19;5111698;28;20438;-56
2022/12/26 07:02:36;;;;;;;2.90;2.70;;;;;;;6.66;71.68;96526.84;5111726;28;20430;-56
2022/12/26 07:05:05;;;;;;;3.80;1.93;;;;;;;6.67;70.18;96475.78;5111583;28;20468;-56
2022/12/26 07:07:33;;;;;;;9.03;6.00;;;;;;;7.25;70.53;96524.47;5111674;28;20464;-56
2022/12/26 07:10:02;;;;;;;8.37;3.57;;;;;;;7.54;68.37;96530.84;5111653;28;20426;-56
2022/12/26 07:12:30;;;;;;;3.60;3.30;;;;;;;7.58;68.43;96530.19;5111687;28;20429;-56
2022/12/26 07:14:58;;;;;;;2.10;2.00;;;;;;;7.55;67.01;96467.31;5111891;28;20414;-56
2022/12/26 07:17:29;;;;;;;4.70;4.40;;;;;;;8.08;66.78;96527.34;5111467;28;20949;-56
2022/12/26 07:19:58;;;;;;;6.53;3.73;;;;;;;8.00;67.02;96532.91;5111600;28;20436;-57
2022/12/26 07:22:27;;;;;;;4.20;2.40;;;;;;;8.14;65.97;96523.81;5111495;28;20914;-56
2022/12/26 07:24:55;;;;;;;3.43;3.23;;;;;;;8.43;64.84;96523.00;5111731;28;20519;-57
2022/12/26 07:27:23;;;;;;;4.73;1.97;;;;;;;8.69;64.11;96529.72;5111514;28;20420;-58
2022/12/26 07:29:52;;;;;;;0.80;0.80;;;;;;;9.13;61.80;96529.19;5111278;28;20492;-59
2022/12/26 07:32:20;;;;;;;3.57;3.27;;;;;;;9.47;61.65;96538.13;5111390;28;20424;-59
2022/12/26 07:34:48;;;;;;;2.87;1.87;;;;;;;9.54;61.27;96533.53;5111461;28;20412;-60
2022/12/26 07:37:18;;;;;;;11.13;2.40;;;;;;;9.55;62.33;96528.00;5111876;28;20507;-61
2022/12/26 07:39:46;;;;;;;2.97;2.87;;;;;;;10.12;60.41;96544.00;5111694;28;20428;-61
2022/12/26 07:42:20;;;;;;;1.80;1.70;;;;;;;10.28;58.73;96543.25;5111668;28;20425;-62
2022/12/26 07:44:48;;;;;;;2.87;1.57;;;;;;;10.87;58.45;96541.09;5111501;28;20838;-62
2022/12/26 07:47:16;;;;;;;2.30;1.93;;;;;;;11.08;56.75;96543.81;5111543;28;20424;-62
2022/12/26 07:49:45;;;;;;;1.17;1.17;;;;;;;11.16;56.26;96545.25;5111444;28;20505;-61
2022/12/26 07:52:13;;;;;;;1.03;1.03;;;;;;;11.22;56.15;96539.78;5111671;28;20449;-61
2022/12/26 07:54:45;;;;;;;1.80;1.70;;;;;;;11.80;54.04;96510.06;5111493;28;20497;-61
2022/12/26 07:57:13;;;;;;;2.63;2.53;;;;;;;12.09;54.59;96540.69;5111323;28;20423;-61
2022/12/26 08:00:03;;;;;;;1.70;1.60;;;;;;;12.43;53.61;96537.84;5113498;28;20490;-61
2022/12/26 08:02:31;;;;;;;4.73;3.03;;;;;;;12.60;52.84;96526.06;5114834;28;20427;-61
2022/12/26 08:05:00;;;;;;;1.83;1.73;;;;;;;13.50;49.86;96533.19;5114670;28;20563;-62
2022/12/26 08:07:28;;;;;;;1.30;1.30;;;;;;;13.91;49.65;96526.19;5114911;28;20509;-62
2022/12/26 08:09:58;;;;;;;1.57;1.47;;;;;;;13.40;50.69;96530.44;5114836;28;20490;-61
2022/12/26 08:12:28;;;;;;;1.03;1.03;;;;;;;14.07;50.29;96527.84;5114764;28;20427;-60
2022/12/26 08:14:56;;;;;;;1.53;1.43;;;;;;;13.23;49.17;96527.16;5115028;28;20472;-59
2022/12/26 08:17:24;;;;;;;2.70;2.43;;;;;;;13.38;48.83;96523.78;5115296;28;20840;-60
2022/12/26 08:19:53;;;;;;;3.27;1.80;;;;;;;13.00;49.39;96520.31;5114886;28;20467;-59
2022/12/26 08:22:21;;;;;;;4.50;3.60;;;;;;;13.95;48.38;96512.06;5114892;28;20448;-59
2022/12/26 08:24:49;;;;;;;1.37;1.23;;;;;;;14.48;47.08;96518.13;5114568;28;21053;-58
2022/12/26 08:27:19;;;;;;;3.60;1.13;;;;;;;15.00;46.49;96517.91;5114843;28;20452;-58
2022/12/26 08:29:48;;;;;;;1.20;0.87;;;;;;;14.70;45.65;96508.00;5114797;28;20462;-57
2022/12/26 08:32:16;;;;;;;1.23;0.90;;;;;;;14.49;47.08;96509.06;5114435;28;20836;-58
2022/12/26 08:34:44;;;;;;;5.60;2.00;;;;;;;14.42;46.96;96500.53;5114717;28;20432;-57
2022/12/26 08:37:12;;;;;;;1.93;1.23;;;;;;;14.24;47.50;96508.97;5114813;28;20490;-57
2022/12/26 08:39:41;;;;;;;0.80;0.80;;;;;;;15.26;45.62;96498.09;5114226;28;20439;-57
2022/12/26 08:42:09;;;;;;;1.00;1.00;;;;;;;14.98;46.13;96496.78;5114724;28;20436;-56
2022/12/26 08:44:39;;;;;;;2.20;2.10;;;;;;;14.69;46.45;96498.41;5114509;28;20503;-56
2022/12/26 08:47:07;;;;;;;1.87;1.77;;;;;;;14.88;46.68;96504.00;5114316;28;21073;-56
2022/12/26 08:49:36;;;;;;;1.37;1.27;;;;;;;14.59;46.53;96501.88;5113936;28;20562;-56
2022/12/26 08:52:05;;;;;;;2.27;1.30;;;;;;;14.88;46.00;96499.47;5114166;28;20534;-56
2022/12/26 08:54:34;;;;;;;2.33;2.23;;;;;;;15.19;45.84;96505.59;5114308;28;20429;-55
2022/12/26 08:57:02;;;;;;;3.10;1.83;;;;;;;14.66;46.20;96506.94;5114185;28;20501;-56
2022/12/26 08:59:30;;;;;;;2.80;1.63;;;;;;;14.34;47.03;96493.03;5114231;28;20435;-56
2022/12/26 09:02:00;;;;;;;1.10;1.00;;;;;;;14.90;46.14;96508.00;5114168;28;20451;-56
2022/12/26 09:04:29;;;;;;;0.80;0.80;;;;;;;15.06;45.84;96500.78;5113994;28;20486;-56
2022/12/26 09:06:57;;;;;;;0.97;0.60;;;;;;;15.46;44.81;96486.59;5114046;28;20463;-56
2022/12/26 09:09:25;;;;;;;1.27;1.17;;;;;;;15.42;44.14;96490.88;5113928;28;20431;-56
2022/12/26 09:11:54;;;;;;;1.07;0.77;;;;;;;15.68;43.04;96364.16;5113820;28;20428;-56
2022/12/26 09:14:22;;;;;;;0.57;0.50;;;;;;;16.62;42.34;96489.56;5113613;28;20519;-54
2022/12/26 09:16:51;;;;;;;0.80;0.63;;;;;;;16.60;41.86;96480.19;5113910;28;20511;-55
2022/12/26 09:19:22;;;;;;;2.30;0.40;;;;;;;17.02;40.88;96470.53;5113726;28;20965;-55
2022/12/26 09:22:49;;;;;;;0.57;0.53;;;;;;;17.77;41.18;96479.69;5113713;28;20916;-56
2022/12/26 09:24:40;;;;;;;1.10;1.00;;;;;;;17.65;40.80;96468.56;5113342;28;20533;-58
2022/12/26 09:27:09;;;;;;;0.70;0.70;;;;;;;19.14;39.38;96408.66;5112975;28;20466;-55
2022/12/26 09:29:37;;;;;;;0.50;0.40;;;;;;;18.41;38.45;96459.53;5113398;28;20522;-55
2022/12/26 09:32:06;;;;;;;1.10;1.03;;;;;;;17.37;38.30;96412.28;5113189;28;20439;-54
2022/12/26 09:34:35;;;;;;;0.90;0.90;;;;;;;17.52;38.92;96457.69;5113254;28;20467;-54
2022/12/26 09:37:04;;;;;;;0.60;0.50;;;;;;;17.73;39.10;96451.81;5113130;28;20434;-53
2022/12/26 09:39:35;;;;;;;1.30;1.20;;;;;;;17.65;39.83;96414.94;5113361;28;20511;-55
2022/12/26 09:42:14;;;;;;;1.37;1.27;;;;;;;18.08;39.46;96442.53;5113197;28;20428;-54
2022/12/26 09:45:04;;;;;;;1.13;1.03;;;;;;;16.95;38.88;96293.25;5113085;28;20898;-54
2022/12/26 09:47:35;;;;;;;0.73;0.70;;;;;;;18.23;37.79;96438.84;5113198;28;20439;-54
2022/12/26 09:50:12;;;;;;;0.60;0.60;;;;;;;19.75;35.48;96431.72;5112895;28;20472;-54
2022/12/26 09:52:45;;;;;;;0.60;0.60;;;;;;;19.01;36.28;96417.50;5113081;28;20944;-55
2022/12/26 09:55:35;;;;;;;1.70;1.63;;;;;;;19.07;36.23;96372.53;5113020;28;20435;-55
2022/12/26 09:58:11;;;;;;;1.30;1.20;;;;;;;19.00;38.38;96423.94;5113262;28;20481;-55
2022/12/26 10:00:45;;;;;;;0.60;0.60;;;;;;;19.42;36.12;96421.06;5112824;28;20943;-55
2022/12/26 10:03:14;;;;;;;0.50;0.50;;;;;;;20.58;34.89;96399.75;5113000;28;20459;-57
2022/12/26 10:05:55;;;;;;;1.07;1.03;;;;;;;19.69;35.44;96404.13;5112905;28;20468;-55
2022/12/26 10:08:43;;;;;;;1.03;0.83;;;;;;;19.09;36.93;96389.94;5112865;28;20426;-54
2022/12/26 10:11:23;;;;;;;0.97;0.97;;;;;;;19.67;35.96;96400.94;5112829;28;20444;-56
2022/12/26 10:13:58;;;;;;;1.30;0.70;;;;;;;19.33;36.47;96400.50;5112653;28;20589;-55
2022/12/26 10:16:41;;;;;;;3.47;1.17;;;;;;;19.51;35.95;96399.66;5112695;28;20431;-55
2022/12/26 10:19:19;;;;;;;0.87;0.87;;;;;;;20.27;36.33;96390.78;5112560;28;20464;-55
2022/12/26 10:21:55;;;;;;;1.27;0.70;;;;;;;20.44;34.32;96221.25;5112300;28;20424;-55
2022/12/26 10:24:27;;;;;;;0.50;0.40;;;;;;;22.84;32.39;96372.81;5112567;28;20427;-55
2022/12/26 10:27:00;;;;;;;1.07;0.97;;;;;;;23.04;32.66;96369.44;5112611;28;21060;-55
2022/12/26 10:29:35;;;;;;;0.97;0.97;;;;;;;23.19;31.48;96358.06;5112838;28;20423;-55
2022/12/26 10:32:08;;;;;;;3.33;0.70;;;;;;;21.61;32.92;96364.44;5112480;28;20904;-55
2022/12/26 10:34:40;;;;;;;4.53;1.73;;;;;;;22.44;31.78;96352.50;5112450;28;20847;-55
2022/12/26 10:37:18;;;;;;;0.90;0.50;;;;;;;22.34;32.05;96345.47;5112717;28;20427;-56
2022/12/26 10:39:51;;;;;;;0.50;0.50;;;;;;;22.33;31.72;96346.63;5112171;28;20474;-56
2022/12/26 10:42:26;;;;;;;2.20;1.10;;;;;;;22.33;31.62;96335.81;5112242;28;20813;-55
2022/12/26 10:44:54;;;;;;;0.90;0.90;;;;;;;21.09;32.45;96323.03;5112055;28;20423;-55
2022/12/26 10:47:27;;;;;;;1.10;0.70;;;;;;;21.38;33.34;96339.44;5112131;28;20916;-56
2022/12/26 10:49:58;;;;;;;2.23;1.10;;;;;;;21.84;33.80;96331.63;5111704;28;20474;-56
2022/12/26 10:52:33;;;;;;;0.47;0.47;;;;;;;23.34;31.08;96318.84;5112165;28;20467;-56
2022/12/26 10:55:01;;;;;;;2.47;0.90;;;;;;;24.05;29.83;96249.28;5111841;28;20517;-56
2022/12/26 10:57:53;;;;;;;1.93;1.83;;;;;;;22.93;31.48;96268.13;5111241;28;20436;-56
2022/12/26 11:00:23;;;;;;;1.23;0.50;;;;;;;22.08;31.36;96253.72;5112403;28;20428;-55
2022/12/26 11:03:06;;;;;;;1.07;1.07;;;;;;;22.32;30.60;96314.50;5111805;28;20455;-56
2022/12/26 11:05:38;;;;;;;1.10;1.00;;;;;;;22.25;31.00;96315.00;5111353;28;20998;-56
2022/12/26 11:08:34;;;;;;;1.10;1.00;;;;;;;22.82;30.31;96233.69;5111685;28;20939;-56
2022/12/26 11:11:13;;;;;;;0.70;0.70;;;;;;;22.49;31.22;96307.16;5112131;28;20436;-56
2022/12/26 11:13:47;;;;;;;0.60;0.50;;;;;;;21.88;31.99;96304.84;5111667;28;20424;-56
2022/12/26 11:16:25;;;;;;;2.90;1.10;;;;;;;23.14;30.55;96293.34;5112145;28;20424;-56
2022/12/26 11:18:54;;;;;;;0.50;0.40;;;;;;;24.29;28.67;96240.47;5111610;28;20871;-55
2022/12/26 11:21:25;;;;;;;0.60;0.40;;;;;;;23.21;29.60;96234.13;5111850;28;20458;-56
2022/12/26 11:24:15;;;;;;;0.50;0.40;;;;;;;24.74;28.29;96268.41;5111598;28;20769;-56
2022/12/26 11:26:44;;;;;;;0.40;0.40;;;;;;;24.52;27.77;96285.03;5111597;28;20480;-56
2022/12/26 11:29:14;;;;;;;0.60;0.40;;;;;;;24.23;28.81;96285.19;5111704;28;20875;-54
2022/12/26 11:31:49;;;;;;;0.40;0.30;;;;;;;22.95;29.57;96274.00;5110706;28;20432;-56
2022/12/26 11:34:26;;;;;;;0.87;0.87;;;;;;;21.76;31.86;96275.72;5111524;28;20432;-56
2022/12/26 11:36:56;;;;;;;0.40;0.30;;;;;;;23.39;29.83;96270.00;5115588;28;20488;-55
2022/12/26 11:39:28;;;;;;;0.40;0.40;;;;;;;23.71;29.57;96273.94;5115375;28;20423;-55
2022/12/26 11:41:58;;;;;;;0.40;0.30;;;;;;;23.48;28.64;96267.25;5114807;28;20423;-55
2022/12/26 11:44:30;;;;;;;0.60;0.50;;;;;;;24.03;27.97;96255.03;5115600;28;20432;-55
2022/12/26 11:47:00;;;;;;;8.13;0.70;;;;;;;23.69;27.79;96266.16;5115169;28;20532;-55
2022/12/26 11:49:34;;;;;;;0.40;0.30;;;;;;;23.72;28.05;96264.69;5115144;28;20542;-56
2022/12/26 11:52:44;;;;;;;0.73;0.30;;;;;;;24.81;27.64;96265.16;5114959;28;20537;-56
2022/12/26 11:55:34;;;;;;;0.57;0.50;;;;;;;23.37;28.21;96272.25;5108743;28;20448;-56
2022/12/26 11:58:17;;;;;;;0.67;0.67;;;;;;;23.05;29.27;96272.84;5115258;28;20442;-55
2022/12/26 12:01:16;;;;;;;1.07;0.80;;;;;;;23.42;28.47;96246.91;5115275;28;20826;-55
2022/12/26 12:03:46;;;;;;;2.93;0.80;;;;;;;23.04;28.73;96255.03;5114668;28;20443;-55
2022/12/26 12:06:39;;;;;;;0.40;0.40;;;;;;;24.69;27.98;96257.78;5114757;28;20464;-55
2022/12/26 12:09:21;;;;;;;0.30;0.20;;;;;;;25.73;26.29;96253.38;5114739;28;21130;-56
2022/12/26 12:11:59;;;;;;;0.37;0.33;;;;;;;25.57;26.92;96240.88;5114808;28;20511;-55
2022/12/26 12:14:46;;;;;;;0.40;0.30;;;;;;;24.97;27.07;96239.75;5115002;28;20497;-55
2022/12/26 12:17:26;;;;;;;0.50;0.40;;;;;;;23.90;28.63;96217.41;5114685;28;21012;-55
2022/12/26 12:20:08;;;;;;;0.70;0.70;;;;;;;23.62;28.45;96195.50;5114469;28;20470;-55
2022/12/26 12:22:55;;;;;;;0.80;0.50;;;;;;;23.76;27.96;96198.72;5114838;28;20419;-56
2022/12/26 12:25:56;;;;;;;0.50;0.50;;;;;;;23.78;27.78;96234.38;5114518;28;20419;-57
2022/12/26 12:28:49;;;;;;;1.63;0.60;;;;;;;21.90;28.81;96076.69;5099216;28;20518;-55
2022/12/26 12:31:28;;;;;;;1.13;0.83;;;;;;;20.76;32.00;96249.78;5114585;28;20415;-56
2022/12/26 12:34:07;;;;;;;1.03;0.87;;;;;;;20.32;32.22;96196.78;5113720;28;20438;-55
2022/12/26 12:36:45;;;;;;;1.27;0.60;;;;;;;18.25;31.65;95827.50;5114505;28;20794;-55
2022/12/26 12:39:20;;;;;;;0.70;0.70;;;;;;;21.66;31.54;96245.56;5114371;28;20979;-55
2022/12/26 12:42:11;;;;;;;3.10;2.27;;;;;;;20.59;32.13;96257.78;5114415;28;20416;-55
2022/12/26 12:44:59;;;;;;;1.07;1.07;;;;;;;21.26;31.87;96242.97;5113554;28;21037;-54
2022/12/26 12:47:41;;;;;;;1.43;1.33;;;;;;;21.01;31.60;96240.19;5114368;28;20502;-54
2022/12/26 12:50:18;;;;;;;1.33;1.23;;;;;;;20.79;32.19;96228.41;5113692;28;20489;-54
2022/12/26 12:52:55;;;;;;;0.90;0.90;;;;;;;20.11;33.51;96249.56;5113803;28;20427;-54
2022/12/26 12:55:36;;;;;;;1.23;1.13;;;;;;;20.58;33.57;96248.09;5114315;28;20454;-53
2022/12/26 12:58:13;;;;;;;1.70;1.47;;;;;;;22.28;31.24;96233.34;5113878;28;20459;-54
2022/12/26 13:00:48;;;;;;;10.60;1.23;;;;;;;21.75;30.99;96232.88;5114038;28;20884;-53
2022/12/26 13:03:29;;;;;;;2.03;0.90;;;;;;;23.29;30.04;96232.47;5114149;28;20424;-53
2022/12/26 13:06:05;;;;;;;0.70;0.67;;;;;;;23.30;31.19;96225.97;5113984;28;20424;-53
2022/12/26 13:08:39;;;;;;;0.77;0.53;;;;;;;24.79;29.49;96230.25;5113271;28;20462;-52
2022/12/26 13:11:15;;;;;;;0.67;0.60;;;;;;;22.36;30.61;96229.84;5113689;28;20485;-53
2022/12/26 13:13:49;;;;;;;1.60;1.50;;;;;;;20.83;32.68;96240.13;5113501;28;20440;-53
2022/12/26 13:16:26;;;;;;;2.70;1.00;;;;;;;21.23;32.58;96238.22;5114189;28;20423;-53
2022/12/26 13:18:58;;;;;;;1.80;1.70;;;;;;;21.85;31.78;96232.56;5113951;28;20800;-54
2022/12/26 13:21:31;;;;;;;1.73;1.63;;;;;;;21.85;31.60;96224.47;5113517;28;20435;-54
2022/12/26 13:26:59;;;;;;;1.30;1.20;;;;;;;21.64;32.89;96227.00;5112938;28;20519;-54
2022/12/26 13:29:39;;;;;;;2.97;2.87;;;;;;;21.34;33.45;96228.72;5113176;28;20428;-55
2022/12/26 13:32:20;;;;;;;2.40;0.93;;;;;;;21.94;33.12;96220.66;5113179;28;20432;-55
2022/12/26 13:34:50;;;;;;;2.60;1.30;;;;;;;21.31;33.96;96218.56;5113211;28;20467;-54
2022/12/26 13:37:52;;;;;;;4.77;1.50;;;;;;;20.35;35.72;96217.72;5112961;28;20436;-54
2022/12/26 13:40:24;;;;;;;4.17;2.10;;;;;;;19.69;36.76;96221.22;5110439;28;20873;-55
2022/12/26 13:45:53;;;;;;;9.97;2.53;;;;;;;18.18;38.77;96224.25;5113810;28;20431;-54
2022/12/26 13:48:57;;;;;;;5.30;3.17;;;;;;;17.60;40.19;96231.91;5113150;28;20479;-54
2022/12/26 13:52:21;;;;;;;3.67;3.00;;;;;;;17.71;40.21;96227.94;5072292;28;20821;-54
2022/12/26 13:55:26;;;;;;;4.70;3.53;;;;;;;17.35;40.75;96227.69;5049081;28;20434;-54
2022/12/26 13:58:23;;;;;;;3.50;3.30;;;;;;;16.37;41.86;96238.19;5071741;28;20426;-54
2022/12/26 14:01:00;;;;;;;4.27;4.07;;;;;;;15.75;43.26;96231.78;5070383;28;20551;-55
2022/12/26 14:03:54;;;;;;;2.70;1.60;;;;;;;15.18;44.83;96231.59;5071705;28;20429;-56
2022/12/26 14:06:47;;;;;;;6.57;3.47;;;;;;;14.56;45.45;96222.25;5072006;28;20576;-54
2022/12/26 14:09:38;;;;;;;3.70;3.37;;;;;;;14.12;47.03;96237.25;5072008;28;20955;-54
2022/12/26 14:12:28;;;;;;;3.20;2.60;;;;;;;13.12;49.03;96240.66;5072119;28;20795;-55
2022/12/26 14:15:14;;;;;;;7.60;3.70;;;;;;;12.43;51.02;96246.19;5071701;28;20465;-56
2022/12/26 14:17:53;;;;;;;4.33;4.07;;;;;;;12.01;52.35;96253.38;5071292;28;20456;-57
2022/12/26 14:20:30;;;;;;;5.20;3.37;;;;;;;11.94;52.56;96253.56;5071774;28;20447;-57